Time;durP1;ratioP1;P1;durP2;ratioP2;P2;SDS_P1;SDS_P2;PMS_P1;PMS_P2;Temp;Humidity;BMP_temperature;BMP_pressure;BME280_temperature;BME280_humidity;BME280_pressure;Samples;Min_cycle;Max_cycle;Signal;HPM_P1;HPM_P2
2022/12/25 00:00:15;;;;;;;4.05;2.92;;;;;;;;;;5049341;28;20033;-78
2022/12/25 00:02:40;;;;;;;4.10;3.00;;;;;;;;;;5032960;28;20789;-77
2022/12/25 00:05:06;;;;;;;4.85;3.30;;;;;;;;;;5032961;28;20056;-77
2022/12/25 00:10:15;;;;;;;4.35;3.30;;;;;;;;;;5061478;28;20040;-77
2022/12/25 00:12:41;;;;;;;3.97;3.10;;;;;;;;;;5034367;28;20032;-77
2022/12/25 00:15:06;;;;;;;4.25;3.10;;;;;;;;;;5039185;28;20510;-77
2022/12/25 00:17:32;;;;;;;4.22;3.30;;;;;;;;;;5054683;28;20438;-77
2022/12/25 00:19:57;;;;;;;4.05;2.60;;;;;;;;;;5033645;28;20063;-77
2022/12/25 00:25:07;;;;;;;4.03;3.10;;;;;;;;;;5042715;28;20037;-78
2022/12/25 00:27:32;;;;;;;3.58;2.78;;;;;;;;;;5052428;28;20418;-78
2022/12/25 00:29:58;;;;;;;4.55;2.83;;;;;;;;;;5017733;28;20099;-78
2022/12/25 00:32:24;;;;;;;5.28;2.90;;;;;;;;;;5052537;28;20395;-78
2022/12/25 00:34:49;;;;;;;3.88;3.03;;;;;;;;;;5050224;28;20025;-77
2022/12/25 00:37:14;;;;;;;5.22;2.95;;;;;;;;;;5050216;28;20033;-77
2022/12/25 00:39:40;;;;;;;3.33;2.70;;;;;;;;;;5052407;28;20035;-77
2022/12/25 00:42:17;;;;;;;3.40;2.70;;;;;;;;;;5061361;28;20087;-77
2022/12/25 00:44:43;;;;;;;3.15;2.30;;;;;;;;;;5050738;28;20063;-78
2022/12/25 00:49:53;;;;;;;3.00;2.30;;;;;;;;;;5050573;28;20036;-77
2022/12/25 00:52:18;;;;;;;2.72;2.03;;;;;;;;;;5051785;28;20033;-76
2022/12/25 00:54:43;;;;;;;2.95;2.20;;;;;;;;;;5053530;28;20037;-78
2022/12/25 00:57:09;;;;;;;3.25;2.20;;;;;;;;;;5052699;28;20032;-77
2022/12/25 00:59:34;;;;;;;5.30;2.90;;;;;;;;;;5020828;28;20416;-77
2022/12/25 01:02:22;;;;;;;3.17;2.13;;;;;;;;;;5034998;28;20048;-77
2022/12/25 01:04:45;;;;;;;2.80;1.98;;;;;;;;;;5039343;28;20543;-77
2022/12/25 01:07:10;;;;;;;2.20;1.70;;;;;;;;;;5036242;28;20049;-77
2022/12/25 01:12:20;;;;;;;3.67;1.65;;;;;;;;;;5054510;28;20033;-77
2022/12/25 01:14:46;;;;;;;2.60;1.90;;;;;;;;;;5059799;28;20025;-77
2022/12/25 01:17:11;;;;;;;2.45;1.80;;;;;;;;;;5016935;28;20456;-77
2022/12/25 01:19:37;;;;;;;2.67;1.80;;;;;;;;;;5042045;28;20036;-77
2022/12/25 01:22:02;;;;;;;2.45;1.75;;;;;;;;;;5035133;28;20063;-76
2022/12/25 01:24:28;;;;;;;3.08;1.63;;;;;;;;;;5016655;28;20495;-76
2022/12/25 01:26:53;;;;;;;2.60;1.70;;;;;;;;;;5016134;28;20412;-77
2022/12/25 01:29:18;;;;;;;2.00;1.50;;;;;;;;;;5015881;28;20016;-77
2022/12/25 01:31:44;;;;;;;2.65;1.50;;;;;;;;;;5032087;28;20400;-77
2022/12/25 01:34:09;;;;;;;2.03;1.50;;;;;;;;;;5015370;28;20037;-76
2022/12/25 01:36:35;;;;;;;2.47;1.60;;;;;;;;;;5050538;28;20147;-76
2022/12/25 01:39:00;;;;;;;2.55;1.73;;;;;;;;;;5053474;28;20396;-77
2022/12/25 01:44:13;;;;;;;2.00;1.50;;;;;;;;;;5055763;28;20033;-77
2022/12/25 01:46:38;;;;;;;3.10;1.40;;;;;;;;;;5061633;28;20029;-76
2022/12/25 01:49:08;;;;;;;1.90;1.60;;;;;;;;;;5043720;28;20036;-78
2022/12/25 01:51:38;;;;;;;2.00;1.40;;;;;;;;;;5053469;28;20033;-77
2022/12/25 01:54:05;;;;;;;2.20;1.50;;;;;;;;;;5038120;28;20041;-77
2022/12/25 01:56:31;;;;;;;2.00;1.48;;;;;;;;;;5056031;28;20037;-78
2022/12/25 01:58:56;;;;;;;2.13;1.52;;;;;;;;;;5038596;28;20408;-77
2022/12/25 02:01:22;;;;;;;2.33;1.80;;;;;;;;;;5041468;28;20028;-77
2022/12/25 02:03:47;;;;;;;3.00;2.25;;;;;;;;;;5057729;28;20507;-76
2022/12/25 02:06:12;;;;;;;3.05;1.55;;;;;;;;;;5061504;28;20033;-76
2022/12/25 02:08:38;;;;;;;2.45;1.50;;;;;;;;;;5016747;28;20033;-77
2022/12/25 02:11:04;;;;;;;2.95;1.42;;;;;;;;;;5015715;28;20029;-77
2022/12/25 02:13:29;;;;;;;2.03;1.60;;;;;;;;;;5047098;28;20082;-78
2022/12/25 02:16:27;;;;;;;2.03;1.42;;;;;;;;;;5035036;28;20053;-77
2022/12/25 02:18:55;;;;;;;3.05;1.58;;;;;;;;;;5010556;28;20028;-78
2022/12/25 02:21:27;;;;;;;2.47;1.50;;;;;;;;;;5037104;28;20392;-78
2022/12/25 02:24:04;;;;;;;2.13;1.40;;;;;;;;;;5056548;28;20033;-78
2022/12/25 02:27:05;;;;;;;2.00;1.27;;;;;;;;;;5037274;28;20029;-78
2022/12/25 02:29:39;;;;;;;2.20;1.30;;;;;;;;;;4943234;29;20107;-78
2022/12/25 02:32:05;;;;;;;1.63;1.20;;;;;;;;;;5022910;28;20045;-77
2022/12/25 02:34:39;;;;;;;2.15;1.50;;;;;;;;;;5036789;28;20369;-77
2022/12/25 02:37:04;;;;;;;2.10;1.48;;;;;;;;;;5035744;28;20036;-78
2022/12/25 03:06:41;;;;;;;1.80;1.30;;;;;;;;;;5046548;28;20078;-77
2022/12/25 03:07:07;;;;;;;2.00;1.42;;;;;;;;;;5037276;28;20039;-76
2022/12/25 03:18:06;;;;;;;2.40;1.20;;;;;;;;;;5038465;28;20041;-77
2022/12/25 03:28:46;;;;;;;1.70;1.30;;;;;;;;;;5051479;28;20488;-77
2022/12/25 03:31:16;;;;;;;1.90;1.30;;;;;;;;;;5033512;28;20037;-76
2022/12/25 03:36:57;;;;;;;2.00;1.30;;;;;;;;;;5060671;28;20206;-78
2022/12/25 04:37:16;;;;;;;3.80;2.15;;;;;;;;;;5050337;28;20131;-77
2022/12/25 04:42:26;;;;;;;3.38;1.55;;;;;;;;;;5031828;28;20072;-79
2022/12/25 04:44:51;;;;;;;2.38;1.50;;;;;;;;;;5032701;28;20500;-78
2022/12/25 04:47:17;;;;;;;2.40;1.55;;;;;;;;;;5050425;28;20071;-79
2022/12/25 04:49:42;;;;;;;1.73;1.30;;;;;;;;;;5049872;28;20029;-79
2022/12/25 04:52:08;;;;;;;1.88;1.40;;;;;;;;;;5051969;28;20033;-79
2022/12/25 04:54:33;;;;;;;2.95;1.63;;;;;;;;;;5054264;28;20029;-79
2022/12/25 04:56:59;;;;;;;1.85;1.30;;;;;;;;;;5054492;28;20047;-80
2022/12/25 05:02:08;;;;;;;2.38;1.45;;;;;;;;;;5048800;28;20037;-79
2022/12/25 05:04:34;;;;;;;2.67;1.30;;;;;;;;;;5051118;28;20032;-79
2022/12/25 05:06:59;;;;;;;2.00;1.30;;;;;;;;;;5052430;28;20037;-79
2022/12/25 05:09:25;;;;;;;1.88;1.42;;;;;;;;;;5053956;28;20025;-78
2022/12/25 05:11:50;;;;;;;2.95;1.40;;;;;;;;;;5036718;28;20033;-79
2022/12/25 05:14:16;;;;;;;2.00;1.30;;;;;;;;;;5055565;28;20028;-78
2022/12/25 05:16:41;;;;;;;1.98;1.17;;;;;;;;;;5036978;28;20072;-78
2022/12/25 05:19:06;;;;;;;2.88;1.20;;;;;;;;;;5055117;28;20031;-79
2022/12/25 05:21:32;;;;;;;1.23;0.95;;;;;;;;;;5054339;28;20037;-79
2022/12/25 05:23:57;;;;;;;1.92;1.10;;;;;;;;;;5037632;28;20121;-78
2022/12/25 05:26:23;;;;;;;2.75;1.60;;;;;;;;;;5055361;28;20029;-79
2022/12/25 05:31:33;;;;;;;1.50;0.80;;;;;;;;;;5057874;28;19912;-78
2022/12/25 05:33:58;;;;;;;1.45;0.82;;;;;;;;;;5039710;28;20517;-78
2022/12/25 05:39:08;;;;;;;1.00;0.70;;;;;;;;;;5057639;28;20408;-80
2022/12/25 05:41:34;;;;;;;1.60;0.90;;;;;;;;;;5060990;28;20032;-79
2022/12/25 05:43:59;;;;;;;1.45;0.80;;;;;;;;;;5057789;28;20037;-80
2022/12/25 05:46:24;;;;;;;1.95;0.70;;;;;;;;;;5061485;28;20036;-79
2022/12/25 05:48:50;;;;;;;1.80;0.80;;;;;;;;;;5059470;28;20094;-79
2022/12/25 05:54:00;;;;;;;1.10;0.80;;;;;;;;;;5059032;28;20041;-80
2022/12/25 05:56:25;;;;;;;2.28;0.90;;;;;;;;;;5044312;28;20039;-80
2022/12/25 06:01:35;;;;;;;1.60;1.00;;;;;;;;;;5055342;28;20134;-79
2022/12/25 06:04:01;;;;;;;2.20;1.40;;;;;;;;;;5065787;28;20672;-80
2022/12/25 06:06:27;;;;;;;1.90;1.00;;;;;;;;;;5043535;28;20408;-80
2022/12/25 06:08:53;;;;;;;1.52;0.95;;;;;;;;;;5052636;28;20017;-80
2022/12/25 06:11:19;;;;;;;1.20;0.80;;;;;;;;;;5036195;28;20453;-81
2022/12/25 06:13:47;;;;;;;4.05;1.00;;;;;;;;;;5035425;28;20036;-79
2022/12/25 06:16:13;;;;;;;1.75;0.90;;;;;;;;;;5023737;28;20053;-80
2022/12/25 06:18:40;;;;;;;2.72;1.10;;;;;;;;;;5012971;28;20045;-80
2022/12/25 06:21:06;;;;;;;1.60;1.05;;;;;;;;;;5013704;28;20088;-78
2022/12/25 06:23:32;;;;;;;2.88;1.40;;;;;;;;;;5016984;28;20104;-80
2022/12/25 06:25:58;;;;;;;8.02;4.28;;;;;;;;;;5017729;28;20402;-81
2022/12/25 06:31:08;;;;;;;2.13;1.38;;;;;;;;;;5019983;28;20072;-80
2022/12/25 06:33:34;;;;;;;;;;;;;;;;;;5018611;28;20495;-80
2022/12/25 06:36:03;;;;;;;2.88;1.30;;;;;;;;;;5033631;28;19913;-82
2022/12/25 06:38:28;;;;;;;3.20;1.20;;;;;;;;;;5013934;28;20036;-82
2022/12/25 06:40:54;;;;;;;2.28;1.42;;;;;;;;;;5017021;28;20125;-82
2022/12/25 06:43:19;;;;;;;2.20;1.30;;;;;;;;;;5018155;28;20076;-81
2022/12/25 06:45:46;;;;;;;2.65;1.63;;;;;;;;;;5016826;28;20096;-82
2022/12/25 06:48:12;;;;;;;2.20;1.38;;;;;;;;;;5019630;28;20477;-82
2022/12/25 06:50:41;;;;;;;2.80;1.48;;;;;;;;;;5018896;28;20096;-80
2022/12/25 06:53:09;;;;;;;2.45;1.50;;;;;;;;;;5019979;28;20396;-81
2022/12/25 06:55:34;;;;;;;2.47;1.52;;;;;;;;;;5018604;28;20033;-80
2022/12/25 06:58:00;;;;;;;3.65;1.77;;;;;;;;;;5022577;28;20053;-81
2022/12/25 07:00:25;;;;;;;4.95;1.85;;;;;;;;;;5019149;28;20405;-81
2022/12/25 07:02:51;;;;;;;3.22;2.10;;;;;;;;;;5022414;28;20037;-80
2022/12/25 07:05:16;;;;;;;3.78;2.40;;;;;;;;;;5020387;28;20030;-81
2022/12/25 07:07:42;;;;;;;4.82;2.17;;;;;;;;;;5014199;28;20034;-79
2022/12/25 07:10:07;;;;;;;4.40;2.40;;;;;;;;;;5024059;28;20029;-81
2022/12/25 07:12:33;;;;;;;2.17;1.35;;;;;;;;;;5027289;28;20124;-79
2022/12/25 07:14:58;;;;;;;2.92;1.30;;;;;;;;;;5015097;28;20045;-81
2022/12/25 07:17:24;;;;;;;4.75;1.58;;;;;;;;;;5060406;28;20064;-80
2022/12/25 07:19:49;;;;;;;4.38;1.67;;;;;;;;;;5058557;28;20047;-80
2022/12/25 07:22:15;;;;;;;3.88;1.35;;;;;;;;;;5056147;28;20123;-80
2022/12/25 07:24:40;;;;;;;2.50;1.50;;;;;;;;;;5026460;28;20120;-80
2022/12/25 07:27:07;;;;;;;2.97;1.40;;;;;;;;;;5055986;28;20032;-80
2022/12/25 07:29:32;;;;;;;5.78;2.50;;;;;;;;;;5043660;28;20043;-80
2022/12/25 07:31:58;;;;;;;4.72;2.55;;;;;;;;;;5055830;28;20396;-80
2022/12/25 07:34:23;;;;;;;4.13;2.00;;;;;;;;;;5046607;28;20125;-80
2022/12/25 07:36:49;;;;;;;2.75;1.50;;;;;;;;;;5033437;28;20032;-80
2022/12/25 07:39:15;;;;;;;2.40;1.50;;;;;;;;;;5065462;28;20032;-80
2022/12/25 07:41:40;;;;;;;3.35;1.52;;;;;;;;;;5057955;28;20028;-81
2022/12/25 07:44:12;;;;;;;3.60;1.70;;;;;;;;;;5046285;28;20416;-81
2022/12/25 07:46:38;;;;;;;3.17;1.42;;;;;;;;;;5047210;28;20106;-81
2022/12/25 07:49:03;;;;;;;2.92;1.58;;;;;;;;;;5065467;28;20036;-80
2022/12/25 07:51:29;;;;;;;2.40;1.30;;;;;;;;;;5046138;28;20037;-80
2022/12/25 07:53:55;;;;;;;3.42;1.40;;;;;;;;;;5036266;28;20115;-82
2022/12/25 07:56:20;;;;;;;3.05;1.70;;;;;;;;;;5057521;28;20446;-82
2022/12/25 07:58:46;;;;;;;2.22;1.30;;;;;;;;;;5066403;28;20028;-82
2022/12/25 08:01:12;;;;;;;3.35;1.83;;;;;;;;;;5063106;28;20036;-81
2022/12/25 08:03:38;;;;;;;2.63;1.50;;;;;;;;;;5033647;28;20022;-81
2022/12/25 08:06:07;;;;;;;2.85;1.50;;;;;;;;;;5064109;28;20025;-81
2022/12/25 08:08:33;;;;;;;2.67;1.70;;;;;;;;;;5066130;28;20029;-82
2022/12/25 08:13:42;;;;;;;4.72;1.58;;;;;;;;;;5062972;28;20050;-81
2022/12/25 08:16:08;;;;;;;4.22;1.70;;;;;;;;;;5044910;28;20565;-81
2022/12/25 08:18:34;;;;;;;4.35;1.77;;;;;;;;;;5049099;28;20029;-81
2022/12/25 08:21:03;;;;;;;2.13;1.20;;;;;;;;;;5041386;28;20082;-81
2022/12/25 08:23:29;;;;;;;1.77;1.15;;;;;;;;;;5046912;28;20037;-81
2022/12/25 08:25:57;;;;;;;4.25;1.95;;;;;;;;;;5050338;28;20445;-81
2022/12/25 08:28:23;;;;;;;2.00;1.20;;;;;;;;;;5048784;28;20777;-82
2022/12/25 08:30:48;;;;;;;2.85;1.38;;;;;;;;;;5040621;28;20070;-81
2022/12/25 08:33:14;;;;;;;3.08;1.48;;;;;;;;;;5061353;28;20029;-81
2022/12/25 08:35:39;;;;;;;4.80;1.38;;;;;;;;;;5043803;28;20488;-82
2022/12/25 08:38:05;;;;;;;4.00;1.35;;;;;;;;;;5069791;28;20127;-81
2022/12/25 08:40:31;;;;;;;3.78;1.38;;;;;;;;;;5067999;28;20057;-82
2022/12/25 08:42:56;;;;;;;1.92;1.25;;;;;;;;;;5050870;28;20063;-81
2022/12/25 08:45:25;;;;;;;2.83;1.60;;;;;;;;;;5053480;28;20460;-82
2022/12/25 08:47:54;;;;;;;3.63;1.40;;;;;;;;;;5050281;28;20033;-83
2022/12/25 08:50:20;;;;;;;2.70;1.25;;;;;;;;;;5067359;28;20112;-81
2022/12/25 08:55:30;;;;;;;2.83;1.20;;;;;;;;;;5064269;28;20123;-82
2022/12/25 08:57:55;;;;;;;4.85;2.00;;;;;;;;;;5067586;28;20108;-80
2022/12/25 09:00:21;;;;;;;2.42;1.50;;;;;;;;;;5054942;28;20037;-82
2022/12/25 09:02:46;;;;;;;3.42;2.00;;;;;;;;;;5028929;28;20025;-84
2022/12/25 09:05:12;;;;;;;1.90;1.30;;;;;;;;;;5035635;28;20032;-82
2022/12/25 09:07:37;;;;;;;2.58;1.20;;;;;;;;;;5046976;28;20886;-82
2022/12/25 09:10:03;;;;;;;2.03;1.20;;;;;;;;;;5037978;28;20067;-83
2022/12/25 09:12:28;;;;;;;2.05;1.20;;;;;;;;;;5056485;28;20021;-86
2022/12/25 09:14:54;;;;;;;2.10;1.10;;;;;;;;;;5050696;28;20033;-87
2022/12/25 09:17:19;;;;;;;2.30;1.35;;;;;;;;;;5053959;28;20512;-82
2022/12/25 09:19:45;;;;;;;3.47;1.35;;;;;;;;;;5061129;28;20447;-85
2022/12/25 09:22:10;;;;;;;2.58;1.33;;;;;;;;;;5071343;28;20032;-84
2022/12/25 09:24:38;;;;;;;5.70;1.30;;;;;;;;;;5059831;28;20123;-83
2022/12/25 09:27:03;;;;;;;2.42;1.30;;;;;;;;;;5061429;28;20508;-83
2022/12/25 09:29:29;;;;;;;4.53;1.95;;;;;;;;;;5067930;28;20117;-83
2022/12/25 09:31:54;;;;;;;2.72;1.50;;;;;;;;;;5048299;28;20078;-83
2022/12/25 09:34:20;;;;;;;2.33;1.33;;;;;;;;;;5061538;28;20109;-81
2022/12/25 09:36:45;;;;;;;2.45;1.50;;;;;;;;;;5044351;28;20029;-83
2022/12/25 09:39:10;;;;;;;3.17;1.60;;;;;;;;;;5043568;28;20036;-83
2022/12/25 09:41:42;;;;;;;2.90;1.58;;;;;;;;;;5046993;28;20025;-82
2022/12/25 09:44:15;;;;;;;4.28;1.90;;;;;;;;;;5042902;28;20037;-81
2022/12/25 09:46:46;;;;;;;3.30;2.05;;;;;;;;;;5044091;28;20029;-81
2022/12/25 09:49:17;;;;;;;3.90;1.63;;;;;;;;;;5046380;28;20037;-83
2022/12/25 09:51:43;;;;;;;4.40;1.70;;;;;;;;;;5048439;28;20029;-82
2022/12/25 09:54:11;;;;;;;4.38;1.75;;;;;;;;;;5028680;28;20023;-83
2022/12/25 09:56:36;;;;;;;5.75;2.00;;;;;;;;;;5048911;28;20488;-84
2022/12/25 10:02:05;;;;;;;2.20;1.35;;;;;;;;;;5046513;28;20047;-83
2022/12/25 10:04:48;;;;;;;2.75;1.50;;;;;;;;;;5057514;28;20041;-86
2022/12/25 10:07:21;;;;;;;5.90;1.80;;;;;;;;;;5063553;28;20562;-84
2022/12/25 10:10:13;;;;;;;4.10;1.90;;;;;;;;;;5050601;28;20039;-82
2022/12/25 10:12:45;;;;;;;4.70;1.85;;;;;;;;;;5049750;28;20467;-83
2022/12/25 10:20:44;;;;;;;3.47;1.50;;;;;;;;;;5063676;28;20044;-84
2022/12/25 10:23:54;;;;;;;2.88;1.42;;;;;;;;;;5064421;28;20039;-84
2022/12/25 10:26:24;;;;;;;4.57;2.10;;;;;;;;;;5049407;28;20378;-84
2022/12/25 10:28:54;;;;;;;2.45;1.50;;;;;;;;;;5044704;28;20040;-84
2022/12/25 10:31:24;;;;;;;3.13;1.77;;;;;;;;;;5049021;28;20029;-83
2022/12/25 10:33:50;;;;;;;3.40;1.70;;;;;;;;;;5063639;28;20032;-86
2022/12/25 10:36:23;;;;;;;2.92;1.70;;;;;;;;;;5052074;28;20040;-84
2022/12/25 10:38:48;;;;;;;4.22;1.85;;;;;;;;;;5034303;28;20097;-84
2022/12/25 10:41:20;;;;;;;2.20;1.60;;;;;;;;;;5029851;28;20412;-84
2022/12/25 10:43:47;;;;;;;3.15;1.70;;;;;;;;;;5025601;28;20132;-85
2022/12/25 10:46:13;;;;;;;2.58;1.73;;;;;;;;;;5045551;28;20540;-84
2022/12/25 10:48:40;;;;;;;3.20;1.50;;;;;;;;;;5049431;28;20036;-83
2022/12/25 10:51:06;;;;;;;2.47;1.40;;;;;;;;;;5051729;28;20035;-83
2022/12/25 10:53:36;;;;;;;3.95;1.70;;;;;;;;;;5050385;28;20041;-85
2022/12/25 10:56:02;;;;;;;2.30;1.40;;;;;;;;;;5024301;28;20049;-82
2022/12/25 10:58:28;;;;;;;2.40;1.63;;;;;;;;;;5034414;28;20036;-86
2022/12/25 11:00:56;;;;;;;3.78;1.80;;;;;;;;;;5037593;28;20116;-81
2022/12/25 11:03:38;;;;;;;2.90;1.88;;;;;;;;;;5034560;28;20450;-84
2022/12/25 11:06:05;;;;;;;3.90;1.75;;;;;;;;;;5034668;28;20044;-83
2022/12/25 11:11:16;;;;;;;9.40;1.60;;;;;;;;;;5026244;28;20025;-84
2022/12/25 11:14:08;;;;;;;5.57;1.98;;;;;;;;;;5035124;28;20434;-83
2022/12/25 11:16:35;;;;;;;5.55;1.75;;;;;;;;;;5048387;28;20052;-86
2022/12/25 11:19:18;;;;;;;4.18;1.40;;;;;;;;;;5051639;28;20029;-83
2022/12/25 11:21:48;;;;;;;4.45;1.60;;;;;;;;;;5037630;28;20044;-83
2022/12/25 11:24:17;;;;;;;2.40;1.60;;;;;;;;;;5033230;28;20037;-84
2022/12/25 11:26:50;;;;;;;4.35;1.90;;;;;;;;;;5017837;28;20033;-84
2022/12/25 11:32:30;;;;;;;3.53;1.50;;;;;;;;;;5043435;28;20056;-85
2022/12/25 11:34:56;;;;;;;6.60;1.40;;;;;;;;;;5034119;28;20610;-84
2022/12/25 11:37:40;;;;;;;2.65;1.55;;;;;;;;;;5015933;28;20069;-84
2022/12/25 11:40:11;;;;;;;5.05;2.50;;;;;;;;;;5034030;28;20602;-83
2022/12/25 11:42:38;;;;;;;2.70;1.52;;;;;;;;;;5016738;28;20128;-84
2022/12/25 11:47:50;;;;;;;3.78;2.00;;;;;;;;;;5044276;28;20032;-83
2022/12/25 11:50:19;;;;;;;4.07;1.98;;;;;;;;;;5037196;28;20047;-84
2022/12/25 11:52:50;;;;;;;3.78;1.95;;;;;;;;;;5060112;28;20037;-83
2022/12/25 11:55:16;;;;;;;4.15;2.47;;;;;;;;;;5056074;28;20025;-84
2022/12/25 11:57:42;;;;;;;5.30;2.17;;;;;;;;;;5043238;28;20025;-83
2022/12/25 12:00:09;;;;;;;7.05;2.13;;;;;;;;;;5038155;28;20045;-84
2022/12/25 12:02:41;;;;;;;3.03;1.60;;;;;;;;;;5042820;28;20033;-83
2022/12/25 12:05:10;;;;;;;3.72;1.75;;;;;;;;;;5021006;28;20496;-84
2022/12/25 12:07:35;;;;;;;2.72;1.52;;;;;;;;;;5018739;28;20027;-84
2022/12/25 12:10:01;;;;;;;4.50;1.60;;;;;;;;;;5042323;28;20399;-84
2022/12/25 12:12:45;;;;;;;3.50;1.70;;;;;;;;;;5050513;28;20028;-83
2022/12/25 12:15:10;;;;;;;2.75;1.63;;;;;;;;;;5051528;28;20550;-84
2022/12/25 12:17:36;;;;;;;2.83;1.80;;;;;;;;;;5049574;28;20056;-84
2022/12/25 12:23:15;;;;;;;4.35;1.90;;;;;;;;;;5045693;28;20419;-84
2022/12/25 12:25:40;;;;;;;3.50;2.00;;;;;;;;;;5050744;28;20028;-86
2022/12/25 12:28:09;;;;;;;2.83;1.88;;;;;;;;;;5032675;28;20045;-84
2022/12/25 12:30:34;;;;;;;2.88;1.70;;;;;;;;;;5027751;28;20056;-83
2022/12/25 12:33:04;;;;;;;4.18;1.80;;;;;;;;;;5069968;28;20075;-83
2022/12/25 12:35:30;;;;;;;9.93;4.97;;;;;;;;;;5050564;28;20029;-83
2022/12/25 12:38:03;;;;;;;4.80;2.13;;;;;;;;;;5033018;28;20040;-83
2022/12/25 12:43:16;;;;;;;;;;;;;;;;;;5051523;28;20036;-83
2022/12/25 12:45:41;;;;;;;5.85;2.22;;;;;;;;;;5051320;28;19934;-84
2022/12/25 12:48:14;;;;;;;4.22;2.17;;;;;;;;;;5051170;28;20140;-84
2022/12/25 12:50:39;;;;;;;4.03;2.40;;;;;;;;;;5051225;28;20041;-83
2022/12/25 12:53:31;;;;;;;4.03;2.20;;;;;;;;;;5049978;28;20146;-84
2022/12/25 12:56:07;;;;;;;3.88;2.00;;;;;;;;;;5047362;28;20083;-84
2022/12/25 12:58:33;;;;;;;6.25;2.67;;;;;;;;;;5030904;28;20452;-84
2022/12/25 13:00:59;;;;;;;;;;;;;;;;;;5051761;28;20021;-84
2022/12/25 13:03:27;;;;;;;5.47;2.72;;;;;;;;;;5050608;28;19972;-84
2022/12/25 13:05:56;;;;;;;5.32;2.25;;;;;;;;;;5051006;28;20475;-85
2022/12/25 13:11:30;;;;;;;3.00;2.03;;;;;;;;;;5039615;28;20522;-84
2022/12/25 13:13:58;;;;;;;5.30;3.10;;;;;;;;;;5014962;28;20021;-85
2022/12/25 13:16:24;;;;;;;3.92;2.15;;;;;;;;;;5057867;28;20407;-83
2022/12/25 13:18:50;;;;;;;5.70;2.58;;;;;;;;;;5053362;28;20036;-83
2022/12/25 13:21:16;;;;;;;3.83;2.08;;;;;;;;;;5051393;28;20497;-83
2022/12/25 13:23:42;;;;;;;8.35;3.03;;;;;;;;;;5016485;28;20053;-82
2022/12/25 13:26:11;;;;;;;3.60;1.83;;;;;;;;;;5033029;28;20033;-83
2022/12/25 13:28:37;;;;;;;3.42;1.88;;;;;;;;;;5052238;28;20020;-84
2022/12/25 13:31:12;;;;;;;4.18;2.00;;;;;;;;;;5019388;28;20423;-82
2022/12/25 13:36:21;;;;;;;5.03;2.30;;;;;;;;;;5045524;28;20381;-82
2022/12/25 13:38:48;;;;;;;3.63;2.10;;;;;;;;;;5044062;28;20029;-83
2022/12/25 13:42:04;;;;;;;3.67;2.00;;;;;;;;;;5045736;28;20032;-83
2022/12/25 13:44:35;;;;;;;5.30;2.40;;;;;;;;;;5031873;28;20090;-83
2022/12/25 13:50:03;;;;;;;5.03;2.35;;;;;;;;;;5049773;28;20430;-83
2022/12/25 13:52:30;;;;;;;4.57;2.60;;;;;;;;;;5041824;28;20045;-82
2022/12/25 13:55:19;;;;;;;5.32;2.70;;;;;;;;;;5055984;28;20461;-83
2022/12/25 13:58:01;;;;;;;5.05;2.60;;;;;;;;;;5043915;28;20404;-86
2022/12/25 14:00:36;;;;;;;4.65;2.78;;;;;;;;;;5046558;28;20094;-83
2022/12/25 14:03:08;;;;;;;4.50;3.03;;;;;;;;;;5066316;28;20454;-84
2022/12/25 14:05:36;;;;;;;4.10;2.60;;;;;;;;;;5038190;28;20041;-82
2022/12/25 14:08:02;;;;;;;4.65;2.72;;;;;;;;;;5056360;28;20033;-83
2022/12/25 14:10:29;;;;;;;4.13;2.53;;;;;;;;;;5035822;28;20025;-82
2022/12/25 14:12:55;;;;;;;3.58;2.58;;;;;;;;;;5035396;28;20028;-85
2022/12/25 14:15:21;;;;;;;;;;;;;;;;;;5036300;28;20119;-82
2022/12/25 14:17:47;;;;;;;3.83;2.30;;;;;;;;;;5052803;28;20015;-81
2022/12/25 14:20:12;;;;;;;;;;;;;;;;;;5054730;28;20037;-82
2022/12/25 14:22:59;;;;;;;4.90;2.55;;;;;;;;;;5054573;28;19912;-85
2022/12/25 14:25:32;;;;;;;7.35;3.65;;;;;;;;;;5035133;28;20041;-83
2022/12/25 14:27:58;;;;;;;4.32;3.05;;;;;;;;;;5021166;28;20037;-82
2022/12/25 14:30:24;;;;;;;4.07;3.00;;;;;;;;;;5039465;28;20044;-81
2022/12/25 14:32:50;;;;;;;6.03;3.50;;;;;;;;;;5055170;28;20032;-82
2022/12/25 14:35:15;;;;;;;3.67;2.67;;;;;;;;;;5044787;28;20036;-81
2022/12/25 14:37:41;;;;;;;5.00;2.63;;;;;;;;;;5069550;28;20039;-82
2022/12/25 14:40:22;;;;;;;5.07;2.50;;;;;;;;;;5066215;28;20495;-82
2022/12/25 14:43:14;;;;;;;4.70;2.67;;;;;;;;;;5052985;28;20127;-82
2022/12/25 14:45:40;;;;;;;7.00;3.13;;;;;;;;;;5036007;28;20120;-84
2022/12/25 14:48:17;;;;;;;11.45;6.85;;;;;;;;;;5052960;28;20103;-82
2022/12/25 14:50:49;;;;;;;6.15;3.40;;;;;;;;;;5047583;28;20067;-82
2022/12/25 14:53:21;;;;;;;3.95;2.83;;;;;;;;;;5069744;28;20039;-82
2022/12/25 14:55:47;;;;;;;3.63;2.45;;;;;;;;;;5045307;28;20040;-82
2022/12/25 14:58:21;;;;;;;3.58;2.40;;;;;;;;;;5049146;28;20028;-82
2022/12/25 15:01:09;;;;;;;3.65;2.40;;;;;;;;;;5042176;28;20033;-83
2022/12/25 15:03:35;;;;;;;3.97;2.90;;;;;;;;;;5054881;28;20037;-82
2022/12/25 15:06:01;;;;;;;4.60;2.70;;;;;;;;;;5037839;28;20194;-82
2022/12/25 15:08:27;;;;;;;;;;;;;;;;;;5054622;28;20043;-82
2022/12/25 15:10:53;;;;;;;4.95;2.72;;;;;;;;;;5052400;28;20572;-83
2022/12/25 15:13:18;;;;;;;;;;;;;;;;;;5017036;28;20076;-82
2022/12/25 15:16:16;;;;;;;5.45;2.95;;;;;;;;;;5066536;28;19940;-82
2022/12/25 15:18:42;;;;;;;3.75;2.80;;;;;;;;;;4975378;28;20056;-82
2022/12/25 15:21:13;;;;;;;5.30;3.75;;;;;;;;;;5039330;28;20037;-82
2022/12/25 15:23:39;;;;;;;5.05;3.00;;;;;;;;;;5021524;28;20034;-81
2022/12/25 15:26:06;;;;;;;5.63;3.30;;;;;;;;;;5055888;28;20563;-83
2022/12/25 15:31:23;;;;;;;6.15;3.38;;;;;;;;;;5053102;28;20041;-82
2022/12/25 15:33:49;;;;;;;6.60;4.00;;;;;;;;;;5033267;28;20487;-83
2022/12/25 15:36:15;;;;;;;4.63;2.95;;;;;;;;;;5017709;28;20025;-83
2022/12/25 15:38:41;;;;;;;5.30;3.60;;;;;;;;;;5056677;28;20136;-82
2022/12/25 15:41:06;;;;;;;;;;;;;;;;;;5056745;28;20043;-82
2022/12/25 15:43:32;;;;;;;6.50;3.88;;;;;;;;;;5054810;28;19917;-82
2022/12/25 15:45:57;;;;;;;4.95;3.28;;;;;;;;;;5067502;28;20028;-83
2022/12/25 15:48:23;;;;;;;5.30;3.15;;;;;;;;;;5056298;28;20484;-83
2022/12/25 15:50:48;;;;;;;5.90;3.55;;;;;;;;;;5040511;28;20064;-82
2022/12/25 15:53:14;;;;;;;5.78;3.72;;;;;;;;;;5059932;28;20120;-82
2022/12/25 15:55:40;;;;;;;7.15;4.20;;;;;;;;;;5047115;28;20047;-82
2022/12/25 15:58:05;;;;;;;5.80;3.70;;;;;;;;;;5062426;28;20020;-82
2022/12/25 16:00:31;;;;;;;4.47;3.10;;;;;;;;;;5062529;28;20482;-82
2022/12/25 16:02:56;;;;;;;8.23;3.47;;;;;;;;;;5056736;28;20115;-80
2022/12/25 16:05:22;;;;;;;5.65;2.97;;;;;;;;;;5052985;28;20528;-83
2022/12/25 16:07:48;;;;;;;4.43;3.05;;;;;;;;;;5052831;28;20033;-82
2022/12/25 16:10:14;;;;;;;4.03;2.83;;;;;;;;;;5016842;28;20036;-82
2022/12/25 16:12:40;;;;;;;4.15;3.10;;;;;;;;;;5034314;28;20116;-82
2022/12/25 16:15:06;;;;;;;4.95;3.40;;;;;;;;;;5055618;28;20111;-84
2022/12/25 16:17:32;;;;;;;5.90;3.40;;;;;;;;;;5058220;28;20053;-82
2022/12/25 16:19:57;;;;;;;;;;;;;;;;;;5015040;28;20451;-82
2022/12/25 16:22:26;;;;;;;4.32;3.13;;;;;;;;;;5057546;28;19917;-82
2022/12/25 16:27:35;;;;;;;5.15;3.05;;;;;;;;;;5058583;28;20033;-81
2022/12/25 16:30:01;;;;;;;4.00;3.10;;;;;;;;;;5065180;28;20031;-83
2022/12/25 16:32:28;;;;;;;4.45;2.63;;;;;;;;;;5041686;28;20045;-82
2022/12/25 16:34:53;;;;;;;4.25;2.90;;;;;;;;;;5043253;28;20040;-84
2022/12/25 16:37:18;;;;;;;7.43;4.15;;;;;;;;;;5058792;28;20144;-83
2022/12/25 16:39:44;;;;;;;4.50;3.30;;;;;;;;;;5071125;28;20036;-83
2022/12/25 16:42:09;;;;;;;4.47;3.13;;;;;;;;;;5034027;28;20068;-81
2022/12/25 16:44:35;;;;;;;5.35;3.42;;;;;;;;;;5050758;28;20083;-82
2022/12/25 16:47:01;;;;;;;5.68;3.85;;;;;;;;;;5051453;28;20033;-82
2022/12/25 16:49:26;;;;;;;4.45;3.20;;;;;;;;;;5066002;28;20433;-82
2022/12/25 16:51:52;;;;;;;5.18;3.33;;;;;;;;;;5064488;28;20033;-83
2022/12/25 16:54:18;;;;;;;4.72;3.20;;;;;;;;;;5063189;28;20079;-82
2022/12/25 16:56:44;;;;;;;4.05;2.78;;;;;;;;;;5054481;28;20032;-82
2022/12/25 16:59:15;;;;;;;3.78;2.60;;;;;;;;;;5064845;28;20036;-83
2022/12/25 17:04:26;;;;;;;4.95;2.67;;;;;;;;;;5055995;28;20507;-83
2022/12/25 17:06:51;;;;;;;;;;;;;;;;;;5049818;28;20036;-82
2022/12/25 17:09:22;;;;;;;6.30;3.13;;;;;;;;;;5055015;28;19913;-82
2022/12/25 17:11:48;;;;;;;7.90;3.67;;;;;;;;;;5021139;28;20540;-83
2022/12/25 17:14:13;;;;;;;3.83;2.72;;;;;;;;;;5036565;28;20078;-83
2022/12/25 17:16:39;;;;;;;4.35;2.85;;;;;;;;;;5054786;28;20052;-82
2022/12/25 17:19:11;;;;;;;6.68;2.97;;;;;;;;;;5056143;28;20040;-82
2022/12/25 17:21:37;;;;;;;4.90;2.53;;;;;;;;;;5033046;28;20105;-85
2022/12/25 17:24:03;;;;;;;4.97;2.85;;;;;;;;;;5059194;28;20107;-82
2022/12/25 17:26:28;;;;;;;4.28;2.67;;;;;;;;;;5057184;28;20029;-82
2022/12/25 17:28:55;;;;;;;4.60;2.70;;;;;;;;;;5041621;28;20373;-83
2022/12/25 17:31:20;;;;;;;3.78;2.83;;;;;;;;;;5059054;28;20044;-83
2022/12/25 17:34:13;;;;;;;3.83;3.03;;;;;;;;;;5047259;28;20028;-84
2022/12/25 17:36:47;;;;;;;7.30;3.35;;;;;;;;;;5032688;28;20041;-85
2022/12/25 17:39:27;;;;;;;4.68;2.88;;;;;;;;;;5063065;28;20373;-86
2022/12/25 17:41:58;;;;;;;4.95;2.50;;;;;;;;;;5050647;28;20036;-84
2022/12/25 17:44:59;;;;;;;3.78;2.55;;;;;;;;;;5043720;28;20630;-85
2022/12/25 17:48:15;;;;;;;4.35;2.30;;;;;;;;;;5039593;28;20045;-84
2022/12/25 17:51:22;;;;;;;3.75;2.55;;;;;;;;;;4959386;28;20556;-84
2022/12/25 17:53:55;;;;;;;3.60;2.63;;;;;;;;;;5024978;28;20041;-82